AirNav   Air Wisconsin Up To $57,000 Bonus
 
 459 users online  

1CL2 Ancient Valley/Pontious Airport
Mojave, California, USA

GOING TO MOJAVE?


FAA INFORMATION EFFECTIVE 15 JULY 2021

Location

FAA Identifier: 1CL2
Lat/Long: 34-56-32.9080N 118-10-11.2700W
34-56.548467N 118-10.187833W
34.9424744,-118.1697972
(estimated)
Elevation: 2610 ft. / 796 m (estimated)
Variation: 14E (1985)
From city: 7 miles S of MOJAVE, CA
Time zone: UTC -7 (UTC -8 during Standard Time)
Zip code: 93501

Airport Operations

Airport use: Private use. Permission required prior to landing
Activation date: 04/1988
Control tower: no
ARTCC: LOS ANGELES CENTER
FSS: RIVERSIDE FLIGHT SERVICE STATION
Attendance: UNATNDD
Wind indicator: lighted
Segmented circle: yes

Airport Communications

WX AWOS-3 at MHV (7 nm N): 132.225 (661-824-5218)
WX ASOS at WJF (12 nm S): PHONE 661-949-2840
WX AWOS-1 at L71 (15 nm NE): 120.875 (760-373-7670)
WX AWOS-3P at TSP (18 nm NW): 120.025 (661-823-0473)
WX ASOS at PMD (19 nm S): PHONE 661-272-3798

Nearby radio navigation aids

VOR radial/distance  VOR name  Freq  Var
PMDr329/19.4PALMDALE VORTAC114.5015E
EDWr252/21.6EDWARDS VORTAC116.4012E
LHSr037/25.4LAKE HUGHES VORTAC114.3515E
GMNr060/35.0GORMAN VORTAC116.1016E

Airport Services

Runway Information

Runway 3/21

Dimensions: 1900 x 50 ft. / 579 x 15 m
Surface: dirt
RUNWAY 3  RUNWAY 21
Traffic pattern: leftleft

Runway 7/25

Dimensions: 1300 x 50 ft. / 396 x 15 m
Surface: dirt
RUNWAY 7  RUNWAY 25
Traffic pattern: leftleft

Airport Ownership and Management from official FAA records

Ownership: Privately-owned
Owner: ALFRED A. PONTIOUS AND OTHERS
8417 WEST 20TH STREET WEST
MOJAVE, CA 93501
Phone 661-824-5234
Manager: JERE R. CALEF
P.O. BOX 1146
MOJAVE, CA 93502
Phone 661-824-2839

Airport Operational Statistics

Aircraft based on the field: 11
Single engine airplanes: 11
    

Additional Remarks

OWNER DESIRES ARPT NOT BE CHARTED
FOR CD CTC JOSHUA APCH AT 661-277-3843.

Instrument Procedures

There are no published instrument procedures at 1CL2.

Some nearby airports with instrument procedures:

KMHV - Mojave Air and Space Port (7 nm N)
KWJF - General Wm J Fox Airfield (12 nm S)
KEDW - Edwards Air Force Base (14 nm E)
L71 - California City Municipal Airport (15 nm NE)
KPMD - Palmdale USAF Plant 42 Airport (19 nm S)
 
Loc | Ops | Rwys | IFR | FBO | Links
Com | Nav | Svcs | Stats | Notes
Area around 1CL2 (Ancient Valley/Pontious Airport)
 
Road maps at: MapQuest Bing Google
 
Aerial photo
WARNING: Photo may not be current or correct
Aerial photo of 1CL2 (Ancient Valley/Pontious Airport)
Taken in May 2008

Do you have a better or more recent aerial photo of Ancient Valley/Pontious Airport that you would like to share? If so, please send us your photo.

 
Sectional chart

 
Airport distance calculator
Flying to Ancient Valley/Pontious Airport? Find the distance to fly.

From to 1CL2

Sunrise and sunset
Times for 02-Aug-2021
 Local
(UTC-7)
 Zulu
(UTC)
Morning civil twilight05:3612:36
Sunrise06:0413:04
Sunset19:5402:54
Evening civil twilight20:2103:21

Current date and time
Zulu (UTC)  03-Aug-2021 06:26:21
Local (UTC-7)  02-Aug-2021 23:26:21
 
METAR
KMHV 
8nm N 
030600Z AUTO 27013KT 10SM CLR 29/04 A3006 RMK A01
KWJF 
14nm S 
030556Z AUTO 28008KT 10SM CLR 27/M02 A3005 RMK AO2 SLP148 T02671022 10389 20267 50006
KEDW 
15nm E 
030558Z AUTO 20006KT 10SM CLR 27/03 A3001 RMK AO2 SLP133 T02660025 10401 20266 52011
K9L2 
15nm E 
030558Z AUTO 00000KT 10SM CLR 29/04 A3002 RMK AO2 SLP135 T02850044 10402 20285 50012 $
KTSP 
18nm NW 
030615Z AUTO 00000KT 10SM CLR 20/06 A3022 RMK AO2
KPMD 
19nm S 
030553Z AUTO 18005KT 10SM CLR 27/M03 A3006 RMK AO2 SLP144 T02671033 10378 20261 50010
TAF
KWJF 
14nm S 
030530Z 0306/0406 26010KT P6SM SKC FM030700 26005KT P6SM SKC FM031200 VRB03KT P6SM SKC FM032200 26012G18KT P6SM SKC FM040200 26012KT P6SM SKC
KEDW 
15nm E 
022200Z 0222/0403 VRB06KT 9999 SKC QNH3001INS BECMG 0222/0223 24012G18KT 9999 SKC QNH2999INS BECMG 0303/0304 23012KT 9999 SKC QNH3003INS BECMG 0306/0307 VRB06KT 9999 SKC QNH3003INS BECMG 0323/0324 24012G18KT 9999 SKC QNH2994INS TX41/0223Z TN22/0313Z LAST NO AMDS AFT 0222 NEXT 0313
KPMD 
19nm S 
030530Z 0306/0406 25005KT P6SM SKC FM030800 20008KT P6SM SKC FM031300 VRB03KT P6SM SKC FM032300 24012G18KT P6SM SKC FM040200 24012KT P6SM SKC FM040500 24006KT P6SM SKC
NOTAMs
Click for the latest NOTAMs
NOTAMs are issued by the DoD/FAA and will open in a separate window not controlled by AirNav.

 

 
 

Would you like to see your business listed on this page?

 If your business provides an interesting product or service to pilots, flight crews, aircraft, or users of the Ancient Valley/Pontious Airport, you should consider listing it here.  To start the listing process, click on the button below
 
Add a business
 

Other Pages about Ancient Valley/Pontious Airport

Update a link
 
Copyright © AirNav, LLC. All rights reserved. Privacy Policy  Contact